Time;durP1;ratioP1;P1;durP2;ratioP2;P2;SDS_P1;SDS_P2;PMS_P1;PMS_P2;Temp;Humidity;BMP_temperature;BMP_pressure;BME280_temperature;BME280_humidity;BME280_pressure;Samples;Min_cycle;Max_cycle;Signal;HPM_P1;HPM_P2
2021/03/24 00:01:38;;;;;;;86.10;40.13;;;4.60;99.90;;;;;;12369478;28;20124;-41
2021/03/24 00:07:40;;;;;;;87.82;40.65;;;4.70;99.90;;;;;;12366674;28;20061;-43
2021/03/24 00:13:43;;;;;;;91.38;41.78;;;4.70;99.90;;;;;;12362724;28;20115;-41
2021/03/24 00:19:44;;;;;;;92.60;42.70;;;4.60;99.90;;;;;;12367229;28;20475;-41
2021/03/24 00:25:46;;;;;;;83.45;40.95;;;4.60;99.90;;;;;;12369536;28;20046;-41
2021/03/24 00:31:47;;;;;;;95.15;43.47;;;4.60;99.90;;;;;;12367169;28;20046;-41
2021/03/24 00:37:49;;;;;;;93.10;43.63;;;4.60;99.90;;;;;;12370746;28;20056;-41
2021/03/24 00:43:51;;;;;;;89.03;41.75;;;4.60;99.90;;;;;;12367228;28;20050;-42
2021/03/24 00:49:52;;;;;;;83.05;38.00;;;4.60;99.90;;;;;;12379329;28;20058;-41
2021/03/24 00:56:05;;;;;;;75.28;38.55;;;4.40;99.90;;;;;;12376079;28;20053;-42
2021/03/24 01:02:06;;;;;;;79.60;40.63;;;4.20;99.90;;;;;;12376864;28;20494;-42
2021/03/24 01:08:14;;;;;;;80.78;38.15;;;3.90;99.90;;;;;;12378300;28;20046;-41
2021/03/24 01:14:16;;;;;;;83.55;39.63;;;3.90;99.90;;;;;;12375092;28;20108;-42
2021/03/24 01:20:17;;;;;;;87.93;42.00;;;3.90;99.90;;;;;;12376568;28;20042;-41
2021/03/24 01:26:27;;;;;;;93.00;43.08;;;3.90;99.90;;;;;;12371479;28;20050;-41
2021/03/24 01:32:28;;;;;;;93.78;43.63;;;3.90;99.90;;;;;;12375804;28;20068;-41
2021/03/24 01:38:30;;;;;;;89.57;40.95;;;3.80;99.90;;;;;;12375477;28;20062;-41
2021/03/24 01:44:31;;;;;;;88.85;41.63;;;3.70;99.90;;;;;;12381669;28;20253;-41
2021/03/24 01:50:38;;;;;;;92.28;41.45;;;3.50;99.90;;;;;;12372911;28;20129;-42
2021/03/24 01:56:56;;;;;;;98.78;43.28;;;3.40;99.90;;;;;;12382802;28;20797;-43
2021/03/24 02:02:58;;;;;;;100.43;43.70;;;3.40;99.90;;;;;;12378947;28;20095;-41
2021/03/24 02:09:15;;;;;;;100.78;43.00;;;3.50;99.90;;;;;;12380152;28;20092;-42
2021/03/24 02:15:29;;;;;;;111.85;47.72;;;3.50;99.90;;;;;;12377293;28;20088;-41
2021/03/24 02:21:35;;;;;;;105.28;44.53;;;3.60;99.90;;;;;;12386050;28;20140;-42
2021/03/24 02:27:40;;;;;;;107.22;47.13;;;3.50;99.90;;;;;;12370150;28;20141;-41
2021/03/24 02:33:42;;;;;;;;;;;3.50;99.90;;;;;;12381641;28;20061;-41
2021/03/24 02:39:45;;;;;;;99.18;42.03;;;3.40;99.90;;;;;;12374701;28;20023;-41
2021/03/24 02:45:48;;;;;;;88.25;39.13;;;3.30;99.90;;;;;;12374827;28;20137;-41
2021/03/24 02:51:50;;;;;;;82.13;38.72;;;3.10;99.90;;;;;;12380643;28;20139;-41
2021/03/24 02:57:51;;;;;;;88.38;41.33;;;3.00;99.90;;;;;;12379079;28;20046;-41
2021/03/24 03:04:06;;;;;;;85.80;39.45;;;2.90;99.90;;;;;;12363090;28;20092;-41
2021/03/24 03:10:26;;;;;;;105.50;43.40;;;2.90;99.90;;;;;;12367452;28;20046;-41
2021/03/24 03:16:27;;;;;;;98.30;44.65;;;3.00;99.90;;;;;;12376889;28;20065;-41
2021/03/24 03:22:33;;;;;;;109.20;45.13;;;3.10;99.90;;;;;;12369195;28;20054;-41
2021/03/24 03:28:40;;;;;;;123.07;47.88;;;3.00;99.90;;;;;;12368347;28;20065;-41
2021/03/24 03:34:45;;;;;;;100.07;44.00;;;3.10;99.90;;;;;;12369651;28;20056;-45
2021/03/24 03:40:47;;;;;;;83.50;37.47;;;3.00;99.90;;;;;;12378014;28;20537;-44
2021/03/24 03:46:53;;;;;;;82.97;38.55;;;2.80;99.90;;;;;;12372655;28;20482;-42
2021/03/24 03:53:29;;;;;;;76.63;36.42;;;2.70;99.90;;;;;;12377998;28;20054;-41
2021/03/24 03:59:56;;;;;;;82.72;41.42;;;2.60;99.90;;;;;;12370705;28;20050;-41
2021/03/24 04:06:03;;;;;;;90.35;40.17;;;2.50;99.90;;;;;;12375176;28;20042;-41
2021/03/24 04:12:08;;;;;;;85.90;39.28;;;2.50;99.90;;;;;;12366313;28;20153;-41
2021/03/24 04:18:18;;;;;;;94.88;42.30;;;2.50;99.90;;;;;;12377388;28;20422;-41
2021/03/24 04:24:26;;;;;;;80.85;37.95;;;2.40;99.90;;;;;;12374450;28;20049;-42
2021/03/24 04:30:33;;;;;;;74.63;36.88;;;2.40;99.90;;;;;;12374079;28;20054;-42
2021/03/24 04:36:40;;;;;;;76.28;35.90;;;2.40;99.90;;;;;;12379633;28;20150;-42
2021/03/24 04:43:01;;;;;;;72.45;36.10;;;2.40;99.90;;;;;;12367791;28;20116;-41
2021/03/24 04:49:14;;;;;;;71.35;34.78;;;2.50;99.90;;;;;;12373168;28;20049;-41
2021/03/24 04:55:22;;;;;;;74.60;34.93;;;2.30;99.90;;;;;;12373184;28;20050;-41
2021/03/24 05:01:40;;;;;;;73.60;34.70;;;2.20;99.90;;;;;;12361591;28;20056;-41
2021/03/24 05:07:51;;;;;;;77.80;36.58;;;2.20;99.90;;;;;;12364380;28;20050;-41
2021/03/24 05:13:58;;;;;;;73.80;35.08;;;2.00;99.90;;;;;;12367449;28;20041;-41
2021/03/24 05:20:11;;;;;;;73.45;36.97;;;1.90;99.90;;;;;;12378319;28;20046;-42
2021/03/24 05:26:29;;;;;;;74.00;35.67;;;1.90;99.90;;;;;;12367208;28;20369;-42
2021/03/24 05:32:46;;;;;;;66.45;34.80;;;1.80;99.90;;;;;;12377368;28;20042;-41
2021/03/24 05:38:51;;;;;;;74.72;35.20;;;1.90;99.90;;;;;;12379470;28;20140;-41
2021/03/24 05:45:28;;;;;;;65.53;33.63;;;1.90;99.90;;;;;;12380430;28;20075;-41
2021/03/24 05:51:51;;;;;;;68.03;33.60;;;2.00;99.90;;;;;;12320379;28;20051;-41
2021/03/24 05:58:09;;;;;;;76.07;35.15;;;1.80;99.90;;;;;;12325091;28;20114;-41
2021/03/24 06:04:41;;;;;;;68.70;33.88;;;1.90;99.90;;;;;;12314679;28;20058;-40
2021/03/24 06:11:17;;;;;;;71.65;36.53;;;2.10;99.90;;;;;;12323858;28;20142;-41
2021/03/24 06:18:06;;;;;;;68.53;33.90;;;2.20;99.90;;;;;;12328275;28;20487;-40
2021/03/24 06:24:35;;;;;;;68.43;33.92;;;2.40;99.90;;;;;;12311954;28;20154;-41
2021/03/24 06:31:04;;;;;;;70.72;36.35;;;2.70;99.90;;;;;;12321473;28;20115;-41
2021/03/24 06:37:33;;;;;;;64.97;34.40;;;3.20;99.90;;;;;;12325446;28;20062;-41
2021/03/24 06:43:52;;;;;;;65.53;34.00;;;3.40;99.90;;;;;;12315427;28;20569;-41
2021/03/24 06:50:22;;;;;;;67.00;35.08;;;3.60;99.90;;;;;;12356125;28;20054;-41
2021/03/24 06:56:35;;;;;;;66.93;34.33;;;3.60;99.90;;;;;;12372035;28;20619;-41
2021/03/24 07:03:01;;;;;;;66.70;34.28;;;3.70;99.90;;;;;;12373427;28;20046;-41
2021/03/24 07:09:20;;;;;;;69.75;37.53;;;3.80;99.90;;;;;;12361976;28;20061;-43
2021/03/24 07:15:33;;;;;;;66.45;35.80;;;4.00;99.90;;;;;;12372854;28;20422;-41
2021/03/24 07:21:53;;;;;;;79.50;39.70;;;4.10;99.90;;;;;;12370921;28;20522;-41
2021/03/24 07:28:13;;;;;;;66.88;38.33;;;4.50;99.90;;;;;;12375385;28;20080;-41
2021/03/24 07:34:35;;;;;;;63.33;35.58;;;5.00;99.90;;;;;;12372136;28;20050;-42
2021/03/24 07:40:44;;;;;;;59.95;33.70;;;5.40;99.90;;;;;;12357953;28;20077;-42
2021/03/24 07:47:06;;;;;;;58.63;32.53;;;5.90;99.90;;;;;;12371639;28;20058;-42
2021/03/24 07:53:57;;;;;;;51.08;29.80;;;6.30;99.90;;;;;;12365612;28;20069;-41
2021/03/24 08:00:17;;;;;;;46.88;28.92;;;6.70;99.90;;;;;;12322709;28;20680;-42
2021/03/24 08:06:46;;;;;;;44.72;27.65;;;6.90;99.90;;;;;;12369140;28;20043;-42
2021/03/24 08:13:12;;;;;;;45.55;27.48;;;7.20;99.90;;;;;;12374618;28;20044;-41
2021/03/24 08:19:33;;;;;;;42.30;26.40;;;7.40;99.90;;;;;;12362803;28;20076;-42
2021/03/24 08:25:52;;;;;;;45.25;27.17;;;7.80;99.90;;;;;;12372510;28;20205;-43
2021/03/24 08:32:12;;;;;;;46.45;28.15;;;8.00;99.90;;;;;;12368214;28;20609;-42
2021/03/24 08:38:40;;;;;;;44.38;25.92;;;8.30;99.90;;;;;;12366394;28;20050;-42
2021/03/24 08:44:52;;;;;;;44.97;26.65;;;8.50;99.90;;;;;;12371254;28;20126;-42
2021/03/24 08:51:02;;;;;;;42.72;25.13;;;8.80;99.90;;;;;;12371313;28;20597;-41
2021/03/24 08:57:31;;;;;;;39.35;26.50;;;8.90;99.90;;;;;;12369408;28;20374;-42
2021/03/24 09:04:13;;;;;;;40.33;25.33;;;8.90;99.90;;;;;;12364705;28;20493;-42
2021/03/24 09:10:26;;;;;;;40.13;26.63;;;9.10;99.90;;;;;;12375873;28;20538;-41
2021/03/24 09:16:45;;;;;;;42.58;27.42;;;9.40;99.90;;;;;;12374866;28;20060;-42
2021/03/24 09:23:11;;;;;;;45.55;28.58;;;9.50;99.90;;;;;;12381430;28;20544;-41
2021/03/24 09:29:39;;;;;;;44.15;27.80;;;9.70;99.90;;;;;;12374728;28;20046;-42
2021/03/24 09:36:09;;;;;;;43.22;28.05;;;10.00;99.90;;;;;;12376991;28;20077;-43
2021/03/24 09:42:22;;;;;;;48.42;28.05;;;10.20;99.90;;;;;;12376313;28;20065;-43
2021/03/24 09:48:24;;;;;;;50.50;28.92;;;10.40;99.90;;;;;;12373105;28;20054;-42
2021/03/24 09:54:28;;;;;;;45.55;27.00;;;10.70;99.90;;;;;;12371408;28;20073;-41
2021/03/24 10:00:34;;;;;;;43.97;28.35;;;10.80;99.90;;;;;;12369629;28;20050;-42
2021/03/24 10:06:49;;;;;;;47.67;29.17;;;11.10;99.90;;;;;;12376781;28;20741;-41
2021/03/24 10:13:26;;;;;;;49.75;31.52;;;11.40;99.90;;;;;;12379788;28;20774;-42
2021/03/24 10:19:37;;;;;;;52.40;32.33;;;11.50;99.90;;;;;;12372048;28;20061;-43
2021/03/24 10:25:54;;;;;;;55.70;33.15;;;11.80;99.90;;;;;;12384039;28;20171;-42
2021/03/24 10:32:05;;;;;;;54.28;33.42;;;11.90;99.90;;;;;;12371607;28;20327;-42
2021/03/24 10:38:32;;;;;;;53.92;33.28;;;12.10;99.90;;;;;;12378616;28;20503;-42
2021/03/24 10:44:46;;;;;;;47.05;31.48;;;12.30;99.90;;;;;;12368460;28;20093;-41
2021/03/24 10:51:00;;;;;;;49.15;31.70;;;12.30;99.90;;;;;;12370879;28;20058;-42
2021/03/24 10:57:22;;;;;;;47.05;30.92;;;12.40;99.90;;;;;;12370120;28;20042;-42
2021/03/24 11:03:41;;;;;;;56.25;31.00;;;12.50;99.90;;;;;;12376576;28;20057;-42
2021/03/24 11:10:00;;;;;;;55.35;34.17;;;12.70;99.90;;;;;;12373154;28;20108;-42
2021/03/24 11:16:24;;;;;;;53.45;32.83;;;13.10;99.90;;;;;;12368862;28;20521;-42
2021/03/24 11:22:31;;;;;;;49.90;30.93;;;12.90;99.90;;;;;;12370723;28;20100;-42
2021/03/24 11:28:36;;;;;;;47.25;30.05;;;13.00;99.90;;;;;;12374719;28;20494;-42
2021/03/24 11:34:52;;;;;;;48.50;31.38;;;13.10;99.90;;;;;;12367895;28;20181;-42
2021/03/24 11:40:53;;;;;;;47.00;29.08;;;13.50;99.90;;;;;;12370072;28;20064;-42
2021/03/24 11:47:26;;;;;;;46.28;29.70;;;13.80;99.90;;;;;;12366447;28;20082;-42
2021/03/24 11:53:28;;;;;;;45.50;30.77;;;14.00;99.90;;;;;;12352174;28;20054;-43
2021/03/24 12:00:01;;;;;;;45.90;27.50;;;13.80;99.90;;;;;;12366694;28;20413;-43
2021/03/24 12:06:44;;;;;;;48.38;30.13;;;14.10;99.90;;;;;;12362367;28;20093;-42
2021/03/24 12:12:45;;;;;;;48.05;28.90;;;14.10;99.90;;;;;;12369604;28;20521;-43
2021/03/24 12:18:52;;;;;;;47.08;28.40;;;14.20;99.90;;;;;;12370914;28;20109;-42
2021/03/24 12:25:18;;;;;;;44.80;28.55;;;14.30;99.90;;;;;;12365233;28;20137;-42
2021/03/24 12:31:22;;;;;;;46.40;29.85;;;14.60;99.90;;;;;;12363691;28;20088;-42
2021/03/24 12:37:47;;;;;;;41.20;26.63;;;14.80;99.90;;;;;;12366943;28;20086;-42
2021/03/24 12:43:50;;;;;;;41.13;26.33;;;15.00;99.90;;;;;;12369862;28;20162;-43
2021/03/24 12:50:05;;;;;;;42.08;27.27;;;14.80;99.90;;;;;;12371625;28;20062;-42
2021/03/24 12:56:37;;;;;;;41.22;27.13;;;15.00;99.90;;;;;;12377425;28;20180;-42
2021/03/24 13:03:13;;;;;;;40.88;26.77;;;15.10;99.90;;;;;;12368174;28;20047;-42
2021/03/24 13:09:28;;;;;;;37.20;25.63;;;15.00;99.90;;;;;;12365541;28;20391;-42
2021/03/24 13:15:35;;;;;;;40.67;26.15;;;15.30;99.90;;;;;;12371004;28;20076;-42
2021/03/24 13:21:58;;;;;;;40.13;26.50;;;15.00;99.90;;;;;;12371873;28;20054;-42
2021/03/24 13:28:21;;;;;;;36.33;24.95;;;14.90;99.90;;;;;;12372222;28;21373;-43
2021/03/24 13:34:37;;;;;;;41.40;26.98;;;15.10;99.90;;;;;;12362139;28;20046;-42
2021/03/24 13:40:49;;;;;;;42.63;27.02;;;14.80;99.90;;;;;;12363934;28;20089;-42
2021/03/24 13:46:56;;;;;;;45.50;27.15;;;14.70;99.90;;;;;;12369213;28;20454;-42
2021/03/24 13:53:06;;;;;;;47.67;26.02;;;14.60;99.90;;;;;;12367783;28;20054;-42
2021/03/24 13:59:27;;;;;;;48.13;28.02;;;14.60;99.90;;;;;;12375915;28;20050;-42
2021/03/24 14:05:52;;;;;;;45.88;28.05;;;14.50;99.90;;;;;;12372420;28;20479;-43
2021/03/24 14:12:27;;;;;;;45.20;26.73;;;14.50;99.90;;;;;;12374516;28;20693;-43
2021/03/24 14:18:57;;;;;;;45.30;27.40;;;14.70;99.90;;;;;;12363622;28;20126;-41
2021/03/24 14:25:33;;;;;;;42.75;26.27;;;14.70;99.90;;;;;;12368184;28;20092;-42
2021/03/24 14:31:41;;;;;;;43.10;26.20;;;14.70;99.90;;;;;;12366335;28;20141;-42
2021/03/24 14:38:03;;;;;;;48.38;27.10;;;14.80;99.90;;;;;;12368479;28;20141;-42
2021/03/24 14:44:17;;;;;;;42.70;24.42;;;14.70;99.90;;;;;;12372652;28;20153;-42
2021/03/24 14:50:31;;;;;;;43.22;27.77;;;14.90;99.90;;;;;;12375850;28;20120;-42
2021/03/24 14:56:40;;;;;;;;;;;14.90;99.90;;;;;;12388809;28;20058;-43
2021/03/24 15:02:42;;;;;;;43.13;27.33;;;14.60;99.90;;;;;;12374519;28;19986;-42
2021/03/24 15:08:52;;;;;;;51.60;28.35;;;14.50;99.90;;;;;;12377479;28;20042;-43
2021/03/24 15:14:53;;;;;;;42.03;24.90;;;14.60;99.90;;;;;;12361147;28;20054;-42
2021/03/24 15:21:31;;;;;;;43.10;25.48;;;15.00;99.90;;;;;;12369480;28;20144;-42
2021/03/24 15:27:48;;;;;;;43.65;24.70;;;15.30;99.90;;;;;;12371882;28;20064;-42
2021/03/24 15:33:56;;;;;;;48.40;26.23;;;15.40;99.90;;;;;;12368655;28;20078;-42
2021/03/24 15:40:29;;;;;;;42.50;25.25;;;15.40;99.90;;;;;;12378796;28;20049;-43
2021/03/24 15:46:36;;;;;;;42.58;23.90;;;15.30;99.90;;;;;;12371296;28;20125;-42
2021/03/24 15:52:38;;;;;;;40.75;22.65;;;15.20;99.90;;;;;;12367710;28;20046;-42
2021/03/24 15:58:51;;;;;;;41.92;23.17;;;15.30;99.90;;;;;;12360664;28;20046;-45
2021/03/24 16:05:17;;;;;;;42.88;24.25;;;15.20;99.90;;;;;;12365631;28;20125;-42
2021/03/24 16:11:40;;;;;;;50.58;24.95;;;15.30;99.90;;;;;;12372410;28;20046;-42
2021/03/24 16:17:47;;;;;;;45.63;24.30;;;15.10;99.90;;;;;;12376862;28;20132;-42
2021/03/24 16:24:21;;;;;;;46.35;24.70;;;15.10;99.90;;;;;;12360895;28;20046;-44
2021/03/24 16:30:31;;;;;;;42.58;21.98;;;14.90;99.90;;;;;;12371833;28;20729;-44
2021/03/24 16:37:01;;;;;;;41.20;22.35;;;14.50;99.90;;;;;;12367091;28;20078;-42
2021/03/24 16:43:22;;;;;;;41.50;22.45;;;14.10;99.90;;;;;;12365362;28;20057;-42
2021/03/24 16:49:42;;;;;;;46.88;22.40;;;14.20;99.90;;;;;;12371671;28;20050;-42
2021/03/24 16:56:03;;;;;;;40.20;22.52;;;13.80;99.90;;;;;;12366457;28;20050;-43
2021/03/24 17:02:25;;;;;;;43.03;24.13;;;13.30;99.90;;;;;;12364256;28;20140;-43
2021/03/24 17:08:44;;;;;;;39.45;23.05;;;13.00;99.90;;;;;;12372309;28;20316;-42
2021/03/24 17:14:45;;;;;;;47.25;22.38;;;13.20;99.90;;;;;;12369116;28;20045;-41
2021/03/24 17:21:10;;;;;;;44.63;22.45;;;12.80;99.90;;;;;;12360899;28;20119;-42
2021/03/24 17:27:24;;;;;;;44.15;22.98;;;12.20;99.90;;;;;;12372477;28;20099;-42
2021/03/24 17:33:25;;;;;;;46.97;23.13;;;11.80;99.90;;;;;;12380287;28;20068;-42
2021/03/24 17:39:59;;;;;;;46.10;23.08;;;11.40;99.90;;;;;;12370923;28;20631;-43
2021/03/24 17:46:13;;;;;;;42.40;23.47;;;11.10;99.90;;;;;;12378378;28;20089;-44
2021/03/24 17:52:44;;;;;;;47.83;22.50;;;10.60;99.90;;;;;;12378016;28;20050;-42
2021/03/24 17:58:50;;;;;;;47.33;22.00;;;10.30;99.90;;;;;;12365905;28;20050;-43
2021/03/24 18:05:05;;;;;;;44.95;21.90;;;10.20;99.90;;;;;;12375622;28;20042;-42
2021/03/24 18:11:22;;;;;;;46.45;22.33;;;10.30;99.90;;;;;;12378530;28;20096;-42
2021/03/24 18:17:31;;;;;;;40.97;20.23;;;10.30;99.90;;;;;;12374480;28;20145;-42
2021/03/24 18:23:35;;;;;;;49.10;22.25;;;10.00;99.90;;;;;;12371965;28;20170;-42
2021/03/24 18:29:37;;;;;;;40.80;21.83;;;9.80;99.90;;;;;;12375710;28;20432;-42
2021/03/24 18:35:39;;;;;;;47.97;21.08;;;9.70;99.90;;;;;;12374976;28;20046;-43
2021/03/24 18:41:41;;;;;;;41.85;21.75;;;9.80;99.90;;;;;;12365873;28;20103;-42
2021/03/24 18:47:42;;;;;;;43.42;21.65;;;9.80;99.90;;;;;;12369893;28;20100;-41
2021/03/24 18:53:51;;;;;;;42.55;21.55;;;10.10;99.90;;;;;;12369414;28;20050;-43
2021/03/24 19:00:33;;;;;;;46.72;20.42;;;10.10;99.90;;;;;;12373829;28;20652;-43
2021/03/24 19:06:45;;;;;;;45.05;20.92;;;10.00;99.90;;;;;;12364977;28;20954;-42
2021/03/24 19:12:53;;;;;;;44.90;20.95;;;9.90;99.90;;;;;;12374397;28;20050;-42
2021/03/24 19:18:59;;;;;;;44.80;21.58;;;9.70;99.90;;;;;;12370031;28;20050;-42
2021/03/24 19:25:19;;;;;;;42.38;20.75;;;9.70;99.90;;;;;;12365331;28;20054;-42
2021/03/24 19:31:21;;;;;;;44.70;21.50;;;9.70;99.90;;;;;;12368212;28;20126;-41
2021/03/24 19:37:35;;;;;;;41.55;20.08;;;9.60;99.90;;;;;;12367473;28;20046;-41
2021/03/24 19:43:47;;;;;;;40.83;21.23;;;9.50;99.90;;;;;;12376182;28;20392;-41
2021/03/24 19:49:51;;;;;;;41.60;21.00;;;9.30;99.90;;;;;;12367813;28;20114;-42
2021/03/24 19:55:53;;;;;;;48.47;21.00;;;9.00;99.90;;;;;;12378199;28;20168;-42
2021/03/24 20:02:22;;;;;;;45.22;23.25;;;8.60;99.90;;;;;;12371499;28;20050;-41
2021/03/24 20:08:47;;;;;;;46.20;22.55;;;8.20;99.90;;;;;;12371241;28;20068;-42
2021/03/24 20:15:02;;;;;;;47.47;22.58;;;8.60;99.90;;;;;;12371958;28;20042;-42
2021/03/24 20:21:19;;;;;;;46.28;22.00;;;8.80;99.90;;;;;;12373515;28;20058;-41
2021/03/24 20:27:20;;;;;;;47.30;22.05;;;8.80;99.90;;;;;;12373091;28;20054;-42
2021/03/24 20:33:37;;;;;;;51.08;23.05;;;8.80;99.90;;;;;;12370200;28;20058;-41
2021/03/24 20:40:00;;;;;;;42.15;20.75;;;8.90;99.90;;;;;;12372189;28;20050;-42
2021/03/24 20:46:02;;;;;;;44.38;20.58;;;8.80;99.90;;;;;;12374581;28;20141;-41
2021/03/24 20:52:04;;;;;;;45.13;20.33;;;8.50;99.90;;;;;;12370478;28;20042;-41
2021/03/24 20:58:06;;;;;;;44.50;21.63;;;8.10;99.90;;;;;;12362862;28;20050;-42
2021/03/24 21:04:08;;;;;;;42.33;21.42;;;8.20;99.90;;;;;;12369408;28;20545;-41
2021/03/24 21:10:28;;;;;;;45.20;22.00;;;7.80;99.90;;;;;;12373274;28;20624;-41
2021/03/24 21:16:29;;;;;;;49.25;22.27;;;7.50;99.90;;;;;;12376191;28;20058;-41
2021/03/24 21:22:31;;;;;;;43.30;22.75;;;7.30;99.90;;;;;;12372194;28;20054;-41
2021/03/24 21:28:33;;;;;;;43.88;22.23;;;7.40;99.90;;;;;;12379055;28;20053;-41
2021/03/24 21:34:35;;;;;;;44.22;22.08;;;7.40;99.90;;;;;;12374679;28;20049;-41
2021/03/24 21:40:40;;;;;;;51.03;22.58;;;7.70;99.90;;;;;;12371939;28;20595;-42
2021/03/24 21:46:49;;;;;;;54.75;24.35;;;7.70;99.90;;;;;;12376520;28;20081;-42
2021/03/24 21:52:50;;;;;;;48.67;24.45;;;8.10;99.90;;;;;;12376022;28;20059;-41
2021/03/24 21:58:58;;;;;;;52.15;25.65;;;7.80;99.90;;;;;;12382507;28;20089;-42
2021/03/24 22:05:00;;;;;;;59.00;27.75;;;7.40;99.90;;;;;;12368711;28;20045;-41
2021/03/24 22:11:01;;;;;;;55.80;26.45;;;6.90;99.90;;;;;;12371750;28;20046;-41
2021/03/24 22:17:40;;;;;;;54.42;27.27;;;6.70;99.90;;;;;;12374263;28;20058;-41
2021/03/24 22:23:42;;;;;;;54.40;25.95;;;6.70;99.90;;;;;;12368429;28;20057;-41
2021/03/24 22:29:58;;;;;;;55.85;26.65;;;6.60;99.90;;;;;;12376822;28;20042;-43
2021/03/24 22:36:03;;;;;;;59.72;26.02;;;6.50;99.90;;;;;;12369730;28;20466;-41
2021/03/24 22:42:07;;;;;;;50.55;25.70;;;6.40;99.90;;;;;;12368575;28;20077;-41
2021/03/24 22:48:24;;;;;;;51.95;27.05;;;6.50;99.90;;;;;;12369681;28;20445;-42
2021/03/24 22:54:30;;;;;;;51.65;26.80;;;6.30;99.90;;;;;;12368888;28;20049;-42
2021/03/24 23:00:32;;;;;;;49.83;26.92;;;6.30;99.90;;;;;;12368934;28;20046;-41
2021/03/24 23:06:34;;;;;;;58.92;28.58;;;6.30;99.90;;;;;;12371285;28;20146;-41
2021/03/24 23:12:54;;;;;;;55.83;28.35;;;6.30;99.90;;;;;;12374277;28;20087;-43
2021/03/24 23:19:09;;;;;;;68.03;30.85;;;6.20;99.90;;;;;;12361389;28;20070;-41
2021/03/24 23:25:18;;;;;;;61.70;30.83;;;6.20;99.90;;;;;;12366455;28;20525;-42
2021/03/24 23:31:21;;;;;;;61.10;30.13;;;6.20;99.90;;;;;;12376367;28;20152;-41
2021/03/24 23:37:24;;;;;;;61.90;30.58;;;6.10;99.90;;;;;;12371404;28;20372;-41
2021/03/24 23:43:33;;;;;;;65.93;32.35;;;6.10;99.90;;;;;;12366046;28;20039;-42
2021/03/24 23:49:35;;;;;;;68.65;32.35;;;6.00;99.90;;;;;;12362449;28;20081;-41
2021/03/24 23:55:39;;;;;;;68.00;34.35;;;5.80;99.90;;;;;;12361398;28;20230;-42
